Time;durP1;ratioP1;P1;durP2;ratioP2;P2;SDS_P1;SDS_P2;PMS_P1;PMS_P2;Temp;Humidity;BMP_temperature;BMP_pressure;BME280_temperature;BME280_humidity;BME280_pressure;Samples;Min_cycle;Max_cycle;Signal;HPM_P1;HPM_P2
2021/01/09 00:00:20;;;;;;;17.10;11.43;;;2.00;99.90;;;;;;4990489;28;20650;-66
2021/01/09 00:02:46;;;;;;;15.68;10.70;;;2.00;99.90;;;;;;4989529;28;20266;-65
2021/01/09 00:05:13;;;;;;;17.30;10.23;;;1.90;99.90;;;;;;4991035;28;20266;-64
2021/01/09 00:07:39;;;;;;;16.83;10.52;;;2.00;99.90;;;;;;4990808;28;20833;-69
2021/01/09 00:10:07;;;;;;;14.10;10.23;;;2.00;99.90;;;;;;4989516;28;20217;-70
2021/01/09 00:12:34;;;;;;;16.63;9.70;;;2.00;99.90;;;;;;4989871;28;20443;-66
2021/01/09 00:15:00;;;;;;;13.88;9.73;;;1.90;99.90;;;;;;4989841;28;20190;-65
2021/01/09 00:17:26;;;;;;;17.00;10.63;;;1.90;99.90;;;;;;4989642;28;20214;-68
2021/01/09 00:19:52;;;;;;;16.90;10.80;;;1.90;99.90;;;;;;4988864;28;20215;-64
2021/01/09 00:22:18;;;;;;;14.23;9.13;;;1.90;99.90;;;;;;4989628;28;20182;-71
2021/01/09 00:24:43;;;;;;;12.87;9.10;;;1.90;99.90;;;;;;4988423;28;20196;-71
2021/01/09 00:27:10;;;;;;;16.60;10.57;;;1.90;99.90;;;;;;4989065;28;20244;-67
2021/01/09 00:29:37;;;;;;;15.38;10.20;;;1.90;99.90;;;;;;4986446;28;20193;-69
2021/01/09 00:32:03;;;;;;;17.05;10.38;;;1.90;99.90;;;;;;4989926;28;20548;-69
2021/01/09 00:34:29;;;;;;;14.35;9.70;;;1.80;99.90;;;;;;4989695;28;20218;-68
2021/01/09 00:36:55;;;;;;;15.10;10.03;;;1.80;99.90;;;;;;4989814;28;20197;-68
2021/01/09 00:39:20;;;;;;;16.73;10.57;;;1.80;99.90;;;;;;4989531;28;20202;-66
2021/01/09 00:41:46;;;;;;;17.50;11.03;;;1.80;99.90;;;;;;4990548;28;20289;-67
2021/01/09 00:44:11;;;;;;;18.67;11.00;;;1.80;99.90;;;;;;4990430;28;20190;-66
2021/01/09 00:46:37;;;;;;;16.23;10.53;;;1.80;99.90;;;;;;4990152;28;20202;-66
2021/01/09 00:49:03;;;;;;;17.40;11.20;;;1.80;99.90;;;;;;4988936;28;20191;-66
2021/01/09 00:51:29;;;;;;;17.07;10.20;;;1.80;99.90;;;;;;4986921;28;21064;-65
2021/01/09 00:53:54;;;;;;;17.63;11.40;;;1.80;99.90;;;;;;4985185;28;20527;-67
2021/01/09 00:56:20;;;;;;;15.90;10.43;;;1.80;99.90;;;;;;4990850;28;20187;-67
2021/01/09 00:58:47;;;;;;;19.57;10.60;;;1.80;99.90;;;;;;4988420;28;20629;-67
2021/01/09 01:01:13;;;;;;;17.75;11.23;;;1.80;99.90;;;;;;4990319;28;20191;-65
2021/01/09 01:03:39;;;;;;;19.60;11.02;;;1.80;99.90;;;;;;4987159;28;20229;-65
2021/01/09 01:06:05;;;;;;;17.45;11.95;;;1.70;99.90;;;;;;4990061;28;20178;-65
2021/01/09 01:08:31;;;;;;;17.02;10.52;;;1.70;99.90;;;;;;4990550;28;20281;-67
2021/01/09 01:10:57;;;;;;;15.83;10.70;;;1.70;99.90;;;;;;4989120;28;20300;-66
2021/01/09 01:13:23;;;;;;;16.60;10.63;;;1.70;99.90;;;;;;4989097;28;20202;-65
2021/01/09 01:15:49;;;;;;;18.92;11.85;;;1.70;99.90;;;;;;4989804;28;20245;-66
2021/01/09 01:18:15;;;;;;;16.35;10.90;;;1.70;99.90;;;;;;4987818;28;20186;-65
2021/01/09 01:20:41;;;;;;;19.17;11.80;;;1.80;99.90;;;;;;4989345;28;20198;-65
2021/01/09 01:23:07;;;;;;;20.00;10.70;;;1.80;99.90;;;;;;4989156;28;20477;-67
2021/01/09 01:25:32;;;;;;;16.97;10.60;;;1.80;99.90;;;;;;4991330;28;20170;-65
2021/01/09 01:27:58;;;;;;;19.37;11.60;;;1.80;99.90;;;;;;4987133;28;20197;-65
2021/01/09 01:30:24;;;;;;;23.47;12.63;;;1.70;99.90;;;;;;4989828;28;20295;-65
2021/01/09 01:32:49;;;;;;;20.47;11.87;;;1.80;99.90;;;;;;4989889;28;20249;-65
2021/01/09 01:35:15;;;;;;;21.90;12.23;;;1.70;99.90;;;;;;4986689;28;20186;-65
2021/01/09 01:37:40;;;;;;;19.90;12.20;;;1.70;99.90;;;;;;5018846;28;20194;-65
2021/01/09 01:40:07;;;;;;;16.37;10.57;;;1.70;99.90;;;;;;4988293;28;20773;-64
2021/01/09 01:42:33;;;;;;;22.35;12.45;;;1.70;99.90;;;;;;4987535;28;20193;-64
2021/01/09 01:44:59;;;;;;;24.70;13.20;;;1.70;99.90;;;;;;4989913;28;20199;-66
2021/01/09 01:47:25;;;;;;;23.63;12.70;;;1.80;99.90;;;;;;4987659;28;20739;-65
2021/01/09 01:49:51;;;;;;;18.55;11.65;;;1.80;99.90;;;;;;4989168;28;20689;-64
2021/01/09 01:52:17;;;;;;;19.77;11.32;;;1.80;99.90;;;;;;4987587;28;20266;-65
2021/01/09 01:54:44;;;;;;;20.08;11.60;;;1.80;99.90;;;;;;4987697;28;20634;-65
2021/01/09 01:57:12;;;;;;;17.23;11.13;;;1.80;99.90;;;;;;4988725;28;20529;-65
2021/01/09 01:59:40;;;;;;;19.25;12.15;;;1.80;99.90;;;;;;4989366;28;20657;-65
2021/01/09 02:02:12;;;;;;;21.75;11.77;;;1.80;99.90;;;;;;4987822;28;20197;-65
2021/01/09 02:04:38;;;;;;;21.48;12.13;;;1.80;99.90;;;;;;4982915;28;20548;-65
2021/01/09 02:07:13;;;;;;;19.80;11.47;;;1.80;99.90;;;;;;4987481;28;20190;-65
2021/01/09 02:09:45;;;;;;;18.95;10.63;;;1.90;99.90;;;;;;4986421;28;20177;-68
2021/01/09 02:12:13;;;;;;;16.90;10.70;;;1.80;99.90;;;;;;4985965;28;20214;-65
2021/01/09 02:14:39;;;;;;;18.48;11.88;;;1.80;99.90;;;;;;4983149;28;21951;-64
2021/01/09 02:17:06;;;;;;;15.98;10.30;;;1.80;99.90;;;;;;4987722;28;20191;-64
2021/01/09 02:19:34;;;;;;;20.58;11.57;;;1.80;99.90;;;;;;4986077;28;20730;-65
2021/01/09 02:22:02;;;;;;;18.00;11.30;;;1.90;99.90;;;;;;4989262;28;20259;-66
2021/01/09 02:24:28;;;;;;;17.58;11.45;;;1.90;99.90;;;;;;4988557;28;20655;-65
2021/01/09 02:26:54;;;;;;;17.63;11.20;;;1.90;99.90;;;;;;4989091;28;20269;-65
2021/01/09 02:29:22;;;;;;;17.57;11.20;;;1.90;99.90;;;;;;4987222;28;20653;-67
2021/01/09 02:32:01;;;;;;;17.88;10.60;;;1.90;99.90;;;;;;4989140;28;20225;-64
2021/01/09 02:34:43;;;;;;;17.63;11.13;;;1.90;99.90;;;;;;4988204;28;20233;-65
2021/01/09 02:37:09;;;;;;;18.00;10.75;;;2.00;99.90;;;;;;4988092;28;20507;-64
2021/01/09 02:39:36;;;;;;;18.15;10.95;;;2.00;99.90;;;;;;4988006;28;20191;-64
2021/01/09 02:42:03;;;;;;;18.20;11.30;;;2.00;99.90;;;;;;4987798;28;20265;-64
2021/01/09 02:44:29;;;;;;;17.27;10.60;;;1.90;99.90;;;;;;4985221;28;20189;-64
2021/01/09 02:46:55;;;;;;;15.82;9.68;;;1.90;99.90;;;;;;4989019;28;20193;-64
2021/01/09 02:49:21;;;;;;;17.13;10.40;;;1.90;99.90;;;;;;4986671;28;20245;-64
2021/01/09 02:51:46;;;;;;;16.77;10.30;;;2.00;99.90;;;;;;4988237;28;20657;-66
2021/01/09 02:54:12;;;;;;;19.47;10.17;;;1.90;96.70;;;;;;4989351;28;20247;-64
2021/01/09 02:56:37;;;;;;;18.17;10.40;;;1.90;99.30;;;;;;4988605;28;20206;-65
2021/01/09 02:59:03;;;;;;;19.57;11.33;;;1.90;99.30;;;;;;4986514;28;20187;-65
2021/01/09 03:01:30;;;;;;;17.93;10.80;;;1.90;95.30;;;;;;4988079;28;20202;-65
2021/01/09 03:03:56;;;;;;;18.45;10.23;;;1.90;92.40;;;;;;5016190;28;20202;-65
2021/01/09 03:06:22;;;;;;;18.75;10.25;;;1.90;93.60;;;;;;4987300;28;20194;-65
2021/01/09 03:08:48;;;;;;;16.60;10.20;;;1.90;96.30;;;;;;4985438;28;21841;-65
2021/01/09 03:11:15;;;;;;;17.73;11.60;;;1.80;98.00;;;;;;4985197;28;20464;-65
2021/01/09 03:13:41;;;;;;;15.57;9.25;;;1.90;92.50;;;;;;4986951;28;20198;-65
2021/01/09 03:16:06;;;;;;;14.60;9.90;;;1.90;82.20;;;;;;4989135;28;20252;-65
2021/01/09 03:18:32;;;;;;;15.53;9.40;;;1.90;75.30;;;;;;4987831;28;20194;-65
2021/01/09 03:20:58;;;;;;;12.50;7.93;;;1.90;61.50;;;;;;5001640;28;20202;-65
2021/01/09 03:23:23;;;;;;;12.93;7.97;;;1.80;58.10;;;;;;4988366;28;20191;-65
2021/01/09 03:25:49;;;;;;;12.07;8.00;;;1.80;55.00;;;;;;4989123;28;20203;-66
2021/01/09 03:28:14;;;;;;;11.80;7.90;;;1.80;33.40;;;;;;4986858;28;20661;-65
2021/01/09 03:30:40;;;;;;;11.10;7.80;;;1.80;16.10;;;;;;4986990;28;20202;-66
2021/01/09 03:33:06;;;;;;;10.10;7.47;;;1.80;1.00;;;;;;4988916;28;20194;-66
2021/01/09 03:35:31;;;;;;;11.80;7.20;;;1.80;11.00;;;;;;4986827;28;20262;-66
2021/01/09 03:37:57;;;;;;;13.50;8.10;;;1.70;5.00;;;;;;4984673;28;20187;-66
2021/01/09 03:40:22;;;;;;;12.70;7.97;;;1.70;12.00;;;;;;4988178;28;20300;-66
2021/01/09 03:42:48;;;;;;;12.40;8.47;;;1.70;11.10;;;;;;4988879;28;20205;-66
2021/01/09 03:45:14;;;;;;;13.83;8.50;;;1.80;17.00;;;;;;4988005;28;20208;-66
2021/01/09 03:47:39;;;;;;;14.63;8.67;;;1.70;18.70;;;;;;4985456;28;20567;-66
2021/01/09 03:50:06;;;;;;;12.97;7.67;;;1.70;21.70;;;;;;4988642;28;20268;-66
2021/01/09 03:52:31;;;;;;;14.57;9.07;;;1.70;24.00;;;;;;4991253;28;20185;-67
2021/01/09 03:54:57;;;;;;;12.90;8.57;;;1.70;18.10;;;;;;4989282;28;20213;-67
2021/01/09 03:57:23;;;;;;;12.10;8.37;;;1.70;24.10;;;;;;4991345;28;20190;-67
2021/01/09 03:59:49;;;;;;;15.07;9.53;;;1.70;28.60;;;;;;4990469;28;21085;-67
2021/01/09 04:02:15;;;;;;;14.93;9.40;;;1.70;35.90;;;;;;4990143;28;20265;-68
2021/01/09 04:04:41;;;;;;;14.38;8.90;;;1.70;42.00;;;;;;4992706;28;20913;-68
2021/01/09 04:07:06;;;;;;;14.33;9.70;;;1.80;46.20;;;;;;4986715;28;20187;-67
2021/01/09 04:09:32;;;;;;;14.60;8.43;;;1.70;47.70;;;;;;4991027;28;20528;-67
2021/01/09 04:11:58;;;;;;;13.47;9.00;;;1.70;50.10;;;;;;4989061;28;20251;-67
2021/01/09 04:14:23;;;;;;;15.00;9.97;;;1.80;53.80;;;;;;4991182;28;20252;-68
2021/01/09 04:16:49;;;;;;;15.90;9.93;;;1.80;56.10;;;;;;4989980;28;20218;-68
2021/01/09 04:19:15;;;;;;;15.27;10.23;;;1.80;54.70;;;;;;4988979;28;20253;-67
2021/01/09 04:21:51;;;;;;;13.20;9.00;;;1.80;49.80;;;;;;5005486;28;20449;-67
2021/01/09 04:24:18;;;;;;;14.45;8.45;;;1.80;49.00;;;;;;5003924;28;20249;-67
2021/01/09 04:26:44;;;;;;;18.20;9.48;;;1.80;48.30;;;;;;4992211;28;20190;-67
2021/01/09 04:29:09;;;;;;;15.40;9.70;;;1.80;47.50;;;;;;4989343;28;20550;-67
2021/01/09 04:31:35;;;;;;;14.77;9.30;;;1.80;52.10;;;;;;4990039;28;20281;-66
2021/01/09 04:34:01;;;;;;;15.50;9.23;;;1.80;61.00;;;;;;4991024;28;20198;-66
2021/01/09 04:36:26;;;;;;;17.10;9.67;;;1.80;66.20;;;;;;4990261;28;20189;-67
2021/01/09 04:38:52;;;;;;;14.93;9.63;;;1.80;67.40;;;;;;4990628;28;20211;-67
2021/01/09 04:41:21;;;;;;;14.60;9.20;;;1.80;68.80;;;;;;4989297;28;20666;-66
2021/01/09 04:43:48;;;;;;;15.25;9.63;;;1.80;68.70;;;;;;4992049;28;20211;-66
2021/01/09 04:46:16;;;;;;;19.33;10.65;;;1.80;67.20;;;;;;5001467;28;20198;-66
2021/01/09 04:48:43;;;;;;;14.93;9.23;;;1.80;71.10;;;;;;4990802;28;20195;-66
2021/01/09 04:51:10;;;;;;;16.40;9.68;;;1.80;72.50;;;;;;4987678;28;20235;-66
2021/01/09 04:53:39;;;;;;;16.85;10.00;;;1.80;72.70;;;;;;4984131;28;20731;-66
2021/01/09 04:56:05;;;;;;;14.77;9.15;;;1.80;79.20;;;;;;4988877;28;20982;-66
2021/01/09 04:58:32;;;;;;;17.40;9.73;;;1.80;82.00;;;;;;4989029;28;20187;-66
2021/01/09 05:00:58;;;;;;;16.23;9.70;;;1.80;88.90;;;;;;4988292;28;20191;-66
2021/01/09 05:03:24;;;;;;;16.40;9.60;;;1.70;89.90;;;;;;4988274;28;20250;-67
2021/01/09 05:05:50;;;;;;;16.77;9.82;;;1.70;90.80;;;;;;4987458;28;20468;-67
2021/01/09 05:08:16;;;;;;;20.70;11.23;;;1.80;90.70;;;;;;4990105;28;20191;-66
2021/01/09 05:10:42;;;;;;;17.10;10.33;;;1.70;88.90;;;;;;4989027;28;20868;-66
2021/01/09 05:13:08;;;;;;;15.70;9.65;;;1.70;89.80;;;;;;4989346;28;20480;-66
2021/01/09 05:15:38;;;;;;;18.77;11.10;;;1.70;86.40;;;;;;4989711;28;20214;-66
2021/01/09 05:18:05;;;;;;;16.95;9.48;;;1.60;87.20;;;;;;4989417;28;20190;-66
2021/01/09 05:20:31;;;;;;;18.13;10.57;;;1.60;90.10;;;;;;4988599;28;20246;-66
2021/01/09 05:22:59;;;;;;;18.83;10.85;;;1.50;88.90;;;;;;4989669;28;20193;-66
2021/01/09 05:25:26;;;;;;;19.38;10.75;;;1.50;90.30;;;;;;4987129;28;20193;-66
2021/01/09 05:27:56;;;;;;;20.30;10.93;;;1.50;92.00;;;;;;4990517;28;20184;-66
2021/01/09 05:30:23;;;;;;;19.38;10.30;;;1.50;91.60;;;;;;4989757;28;20220;-66
2021/01/09 05:32:50;;;;;;;19.40;11.55;;;1.50;93.60;;;;;;4989365;28;20661;-67
2021/01/09 05:35:17;;;;;;;21.90;11.00;;;1.50;95.50;;;;;;4989759;28;20229;-67
2021/01/09 05:37:48;;;;;;;18.55;11.68;;;1.50;94.90;;;;;;4988845;28;20536;-67
2021/01/09 05:40:14;;;;;;;18.00;11.27;;;1.50;96.50;;;;;;4990100;28;20288;-67
2021/01/09 05:42:40;;;;;;;19.38;10.65;;;1.60;96.70;;;;;;4988145;28;20210;-67
2021/01/09 05:45:08;;;;;;;17.53;11.50;;;1.60;94.20;;;;;;4986513;28;20197;-67
2021/01/09 05:47:36;;;;;;;18.35;11.93;;;1.60;92.70;;;;;;4990052;28;20494;-66
2021/01/09 05:50:03;;;;;;;20.17;13.05;;;1.40;87.60;;;;;;4979041;28;20186;-66
2021/01/09 05:52:29;;;;;;;20.63;11.52;;;1.50;87.70;;;;;;4987999;28;20186;-67
2021/01/09 05:54:58;;;;;;;19.53;11.50;;;1.40;89.20;;;;;;4990379;28;20553;-66
2021/01/09 05:57:29;;;;;;;20.85;13.63;;;1.40;89.20;;;;;;4988484;28;20209;-66
2021/01/09 05:59:59;;;;;;;19.17;10.85;;;1.40;87.60;;;;;;4988472;28;20200;-66
2021/01/09 06:02:25;;;;;;;21.58;12.82;;;1.40;89.30;;;;;;4988049;28;20187;-67
2021/01/09 06:04:59;;;;;;;20.50;12.10;;;1.40;82.70;;;;;;4990470;28;20190;-67
2021/01/09 06:07:30;;;;;;;19.30;12.15;;;1.40;84.50;;;;;;4981900;28;20806;-66
2021/01/09 06:10:12;;;;;;;18.50;11.02;;;1.40;83.70;;;;;;4988592;28;20190;-66
2021/01/09 06:12:57;;;;;;;20.45;12.60;;;1.40;80.50;;;;;;4987695;28;20292;-67
2021/01/09 06:15:24;;;;;;;21.77;12.85;;;1.40;82.70;;;;;;4988146;28;20541;-67
2021/01/09 06:17:51;;;;;;;21.58;12.52;;;1.40;84.00;;;;;;4989498;28;20185;-67
2021/01/09 06:20:17;;;;;;;22.55;12.38;;;1.40;88.20;;;;;;4983272;28;20186;-68
2021/01/09 06:22:43;;;;;;;22.85;13.45;;;1.40;91.80;;;;;;4983990;28;20189;-66
2021/01/09 06:25:12;;;;;;;18.93;11.63;;;1.40;91.00;;;;;;4988095;28;20185;-67
2021/01/09 06:27:40;;;;;;;22.13;12.55;;;1.50;89.60;;;;;;4988149;28;20473;-67
2021/01/09 06:30:09;;;;;;;20.33;11.57;;;1.40;85.30;;;;;;4990218;28;20168;-67
2021/01/09 06:32:40;;;;;;;17.45;11.55;;;1.40;78.30;;;;;;4988514;28;20228;-67
2021/01/09 06:35:08;;;;;;;22.30;13.55;;;1.40;78.30;;;;;;4990021;28;20627;-67
2021/01/09 06:37:35;;;;;;;24.77;13.70;;;1.40;84.20;;;;;;4988049;28;20204;-66
2021/01/09 06:40:01;;;;;;;21.85;12.63;;;1.40;89.90;;;;;;4989056;28;20272;-67
2021/01/09 06:42:29;;;;;;;19.63;11.48;;;1.40;92.40;;;;;;4988248;28;20182;-67
2021/01/09 06:44:55;;;;;;;20.48;13.30;;;1.40;96.30;;;;;;4989394;28;20223;-67
2021/01/09 06:47:30;;;;;;;22.97;13.40;;;1.30;92.60;;;;;;4989822;28;20205;-67
2021/01/09 06:50:15;;;;;;;21.85;13.23;;;1.20;90.30;;;;;;4989356;28;20455;-68
2021/01/09 06:52:56;;;;;;;24.67;12.93;;;1.10;90.00;;;;;;4988646;28;20212;-67
2021/01/09 06:55:37;;;;;;;20.55;12.88;;;1.10;91.60;;;;;;4988981;28;20652;-67
2021/01/09 06:58:14;;;;;;;22.67;13.02;;;1.00;94.80;;;;;;4989340;28;20164;-67
2021/01/09 07:00:40;;;;;;;22.15;13.52;;;1.10;99.20;;;;;;4988855;28;20183;-67
2021/01/09 07:03:10;;;;;;;21.63;13.57;;;1.10;99.90;;;;;;4989596;28;20658;-67
2021/01/09 07:05:50;;;;;;;22.77;14.05;;;1.10;99.90;;;;;;4986148;28;20268;-68
2021/01/09 07:08:24;;;;;;;22.42;13.73;;;1.20;99.90;;;;;;4989387;28;20177;-69
2021/01/09 07:10:52;;;;;;;23.17;13.63;;;1.20;99.90;;;;;;4972517;28;20219;-67
2021/01/09 07:13:19;;;;;;;25.02;12.98;;;1.20;99.90;;;;;;4981987;28;20257;-67
2021/01/09 07:15:45;;;;;;;23.23;13.90;;;1.20;99.90;;;;;;4983279;28;20311;-67
2021/01/09 07:18:12;;;;;;;22.30;13.20;;;1.20;99.90;;;;;;4978230;28;20301;-67
2021/01/09 07:20:38;;;;;;;22.42;12.35;;;1.20;99.90;;;;;;4995321;28;20433;-67
2021/01/09 07:23:07;;;;;;;23.05;13.90;;;1.30;99.90;;;;;;4980433;28;20201;-68
2021/01/09 07:25:44;;;;;;;21.05;13.05;;;1.30;99.90;;;;;;4980873;28;20217;-67
2021/01/09 07:28:11;;;;;;;21.00;13.02;;;1.30;99.20;;;;;;4982714;28;20645;-68
2021/01/09 07:30:37;;;;;;;23.77;13.05;;;1.30;99.90;;;;;;4982995;28;20212;-67
2021/01/09 07:33:07;;;;;;;22.65;13.07;;;1.40;99.90;;;;;;4998057;28;20185;-67
2021/01/09 07:35:32;;;;;;;21.88;12.75;;;1.40;99.90;;;;;;4984318;28;20170;-67
2021/01/09 07:38:05;;;;;;;24.53;14.40;;;1.40;99.90;;;;;;4981351;28;20619;-67
2021/01/09 07:40:46;;;;;;;22.02;13.13;;;1.50;99.90;;;;;;4982629;28;20229;-67
2021/01/09 07:43:33;;;;;;;24.58;14.60;;;1.50;99.90;;;;;;4981175;28;20188;-67
2021/01/09 07:46:00;;;;;;;26.05;14.00;;;1.50;99.90;;;;;;4982641;28;20194;-67
2021/01/09 07:48:32;;;;;;;21.77;12.32;;;1.50;99.90;;;;;;4982480;28;20239;-66
2021/01/09 07:50:58;;;;;;;23.67;13.93;;;1.50;99.90;;;;;;4982661;28;20221;-66
2021/01/09 07:53:27;;;;;;;21.35;12.73;;;1.60;99.80;;;;;;4984640;28;20701;-67
2021/01/09 07:55:54;;;;;;;23.35;15.02;;;1.60;99.40;;;;;;4991783;28;20195;-67
2021/01/09 07:58:42;;;;;;;22.95;13.32;;;1.60;98.70;;;;;;4991434;28;20957;-67
2021/01/09 08:01:07;;;;;;;22.08;13.07;;;1.70;97.20;;;;;;4992198;28;20641;-67
2021/01/09 08:03:33;;;;;;;23.70;13.27;;;1.70;95.70;;;;;;4992642;28;20241;-67
2021/01/09 08:05:59;;;;;;;21.27;12.77;;;1.70;93.90;;;;;;4990897;28;20652;-67
2021/01/09 08:08:26;;;;;;;25.07;13.87;;;1.70;93.10;;;;;;4989948;28;20192;-67
2021/01/09 08:10:52;;;;;;;23.90;12.73;;;1.80;92.40;;;;;;4991872;28;20780;-67
2021/01/09 08:13:21;;;;;;;17.70;11.80;;;1.80;91.40;;;;;;5002562;28;20269;-67
2021/01/09 08:15:46;;;;;;;23.08;13.75;;;1.90;88.50;;;;;;4991404;28;20187;-67
2021/01/09 08:18:12;;;;;;;21.80;13.17;;;1.90;81.30;;;;;;4991254;28;20262;-68
2021/01/09 08:20:38;;;;;;;21.60;13.30;;;1.90;78.50;;;;;;4983793;28;20203;-67
2021/01/09 08:23:06;;;;;;;29.57;14.93;;;1.90;78.50;;;;;;4989751;28;20462;-68
2021/01/09 08:25:34;;;;;;;22.98;13.00;;;1.90;87.00;;;;;;4992343;28;20508;-68
2021/01/09 08:28:02;;;;;;;21.15;12.60;;;2.00;99.90;;;;;;4991594;28;20187;-67
2021/01/09 08:30:33;;;;;;;25.25;14.27;;;2.00;95.70;;;;;;4990824;28;20265;-67
2021/01/09 08:33:10;;;;;;;21.25;13.85;;;2.00;86.30;;;;;;4981965;28;20188;-67
2021/01/09 08:35:49;;;;;;;20.08;12.95;;;2.00;83.20;;;;;;4990079;28;20332;-67
2021/01/09 08:38:15;;;;;;;18.42;11.90;;;2.10;68.90;;;;;;4991983;28;20189;-68
2021/01/09 08:40:44;;;;;;;18.95;12.32;;;2.10;64.00;;;;;;4990541;28;20238;-67
2021/01/09 08:43:11;;;;;;;16.77;10.65;;;2.20;64.20;;;;;;4990884;28;20570;-67
2021/01/09 08:45:41;;;;;;;20.63;12.30;;;2.10;58.70;;;;;;4989019;28;20202;-68
2021/01/09 08:48:19;;;;;;;16.83;10.70;;;2.10;50.80;;;;;;4986094;28;20196;-68
2021/01/09 08:50:57;;;;;;;17.92;11.38;;;2.20;50.40;;;;;;4991248;28;20219;-68
2021/01/09 08:53:26;;;;;;;21.20;10.80;;;2.20;45.10;;;;;;4989204;28;20183;-68
2021/01/09 08:55:58;;;;;;;16.63;10.35;;;2.30;35.50;;;;;;4990497;28;20572;-68
2021/01/09 08:58:24;;;;;;;16.20;10.90;;;2.40;29.20;;;;;;4989387;28;20194;-67
2021/01/09 09:00:50;;;;;;;16.03;10.30;;;2.40;24.20;;;;;;4989222;28;20545;-67
2021/01/09 09:03:17;;;;;;;16.10;10.10;;;2.40;13.90;;;;;;4988617;28;20213;-67
2021/01/09 09:05:46;;;;;;;15.25;9.85;;;2.40;19.20;;;;;;4990256;28;20183;-66
2021/01/09 09:08:15;;;;;;;13.20;10.07;;;2.40;16.50;;;;;;4986237;28;20643;-66
2021/01/09 09:10:44;;;;;;;16.30;10.60;;;2.40;12.50;;;;;;4986884;28;20238;-67
2021/01/09 09:13:23;;;;;;;14.50;9.90;;;2.40;10.50;;;;;;4988841;28;20184;-67
2021/01/09 09:15:50;;;;;;;14.38;8.95;;;2.50;1.80;;;;;;4988286;28;20197;-67
2021/01/09 09:18:17;;;;;;;13.90;8.43;;;2.50;1.00;;;;;;4979294;28;20302;-67
2021/01/09 09:20:48;;;;;;;15.07;9.10;;;2.50;3.10;;;;;;4992511;28;20184;-67
2021/01/09 09:23:19;;;;;;;15.32;8.15;;;2.50;2.50;;;;;;4988564;28;20195;-68
2021/01/09 09:25:46;;;;;;;13.77;8.25;;;2.50;2.20;;;;;;4990381;28;20222;-67
2021/01/09 09:28:11;;;;;;;13.93;9.85;;;2.50;1.00;;;;;;4988953;28;20187;-67
2021/01/09 09:30:37;;;;;;;14.30;9.77;;;2.50;3.80;;;;;;4990021;28;20668;-69
2021/01/09 09:33:14;;;;;;;14.17;9.43;;;2.50;3.00;;;;;;4990358;28;20480;-67
2021/01/09 09:35:40;;;;;;;17.30;9.73;;;2.60;8.60;;;;;;4985323;28;20195;-69
2021/01/09 09:38:10;;;;;;;18.40;10.52;;;2.60;14.70;;;;;;4990326;28;20214;-66
2021/01/09 09:40:37;;;;;;;16.25;9.95;;;2.70;11.70;;;;;;4987720;28;20242;-67
2021/01/09 09:43:19;;;;;;;16.85;9.55;;;2.70;2.60;;;;;;4989196;28;20179;-68
2021/01/09 09:46:04;;;;;;;15.40;9.73;;;2.80;1.00;;;;;;4989562;28;20226;-67
2021/01/09 09:48:34;;;;;;;14.52;9.35;;;2.80;1.00;;;;;;4987559;28;20190;-68
2021/01/09 09:51:11;;;;;;;13.13;8.70;;;2.80;1.00;;;;;;4990435;28;20233;-66
2021/01/09 09:53:42;;;;;;;14.15;9.75;;;2.70;1.00;;;;;;4989974;28;20178;-66
2021/01/09 09:56:17;;;;;;;13.65;8.82;;;2.70;1.00;;;;;;4985300;28;20198;-68
2021/01/09 09:58:44;;;;;;;12.38;8.98;;;2.70;1.00;;;;;;4987163;28;20659;-68
2021/01/09 10:01:17;;;;;;;15.45;8.55;;;2.70;1.00;;;;;;4988059;28;20195;-71
2021/01/09 10:03:43;;;;;;;14.15;9.57;;;2.80;1.00;;;;;;4980681;28;20294;-70
2021/01/09 10:06:09;;;;;;;12.37;8.43;;;2.70;1.00;;;;;;4987663;28;20539;-69
2021/01/09 10:08:34;;;;;;;13.37;9.63;;;2.70;1.00;;;;;;4987993;28;20198;-69
2021/01/09 10:11:00;;;;;;;12.33;8.63;;;2.80;1.00;;;;;;4978484;28;20214;-68
2021/01/09 10:13:27;;;;;;;14.10;9.50;;;2.70;1.00;;;;;;4981586;28;20282;-66
2021/01/09 10:15:56;;;;;;;15.48;9.52;;;2.70;1.00;;;;;;4980826;28;20567;-68
2021/01/09 10:18:22;;;;;;;13.52;8.73;;;2.50;1.00;;;;;;4979743;28;20186;-65
2021/01/09 10:20:47;;;;;;;11.73;8.65;;;2.50;5.80;;;;;;4978369;28;20203;-68
2021/01/09 10:23:13;;;;;;;12.57;8.90;;;2.60;1.00;;;;;;4980532;28;20222;-66
2021/01/09 10:25:38;;;;;;;13.00;9.40;;;2.60;6.80;;;;;;4979657;28;20207;-66
2021/01/09 10:28:04;;;;;;;11.70;8.90;;;2.60;13.10;;;;;;4980976;28;20191;-67
2021/01/09 10:30:30;;;;;;;10.33;7.53;;;2.60;16.60;;;;;;4978580;28;20206;-66
2021/01/09 10:32:57;;;;;;;14.20;8.70;;;2.80;6.70;;;;;;4978591;28;20246;-65
2021/01/09 10:35:23;;;;;;;10.55;7.85;;;2.80;1.00;;;;;;4980259;28;20641;-65
2021/01/09 10:37:49;;;;;;;12.30;8.85;;;2.80;8.60;;;;;;4977851;28;20202;-64
2021/01/09 10:40:14;;;;;;;11.37;8.50;;;2.70;9.80;;;;;;4980316;28;20744;-65
2021/01/09 10:42:40;;;;;;;11.27;7.97;;;2.70;8.80;;;;;;4979398;28;20223;-65
2021/01/09 10:45:06;;;;;;;11.73;8.00;;;2.80;1.00;;;;;;4980274;28;20191;-67
2021/01/09 10:47:32;;;;;;;12.77;8.52;;;2.80;4.30;;;;;;4978885;28;20209;-66
2021/01/09 10:49:58;;;;;;;12.30;8.30;;;2.90;2.90;;;;;;4980292;28;20193;-67
2021/01/09 10:52:24;;;;;;;12.30;7.73;;;2.90;1.00;;;;;;4978626;28;20207;-68
2021/01/09 10:54:50;;;;;;;11.70;8.82;;;2.80;1.00;;;;;;4980377;28;20246;-67
2021/01/09 10:57:16;;;;;;;10.95;7.18;;;2.70;1.00;;;;;;4980009;28;20194;-66
2021/01/09 10:59:41;;;;;;;12.27;8.60;;;2.70;5.60;;;;;;4982644;28;20191;-67
2021/01/09 11:02:08;;;;;;;10.10;8.00;;;2.80;1.00;;;;;;4981918;28;20187;-67
2021/01/09 11:04:34;;;;;;;10.13;7.65;;;2.70;1.00;;;;;;5015766;28;20318;-67
2021/01/09 11:07:00;;;;;;;10.70;8.10;;;2.70;6.90;;;;;;4982554;28;20206;-66
2021/01/09 11:09:26;;;;;;;11.27;7.13;;;2.70;4.90;;;;;;4982934;28;20624;-68
2021/01/09 11:11:52;;;;;;;10.48;8.10;;;2.70;1.00;;;;;;4983585;28;20242;-68
2021/01/09 11:14:18;;;;;;;11.33;8.00;;;2.60;1.00;;;;;;4984260;28;20293;-68
2021/01/09 11:16:44;;;;;;;10.67;7.83;;;2.60;1.00;;;;;;4980962;28;20214;-68
2021/01/09 11:19:10;;;;;;;12.53;8.77;;;2.50;4.00;;;;;;4979299;28;20438;-66
2021/01/09 11:21:37;;;;;;;12.43;8.45;;;2.40;8.50;;;;;;4982084;28;20194;-67
2021/01/09 11:24:04;;;;;;;11.82;7.65;;;2.40;18.70;;;;;;4980902;28;20198;-64
2021/01/09 11:26:29;;;;;;;10.63;7.72;;;2.40;10.50;;;;;;4975378;28;20716;-64
2021/01/09 11:28:55;;;;;;;11.10;7.93;;;2.30;16.40;;;;;;4977248;28;20399;-65
2021/01/09 11:31:22;;;;;;;12.00;8.02;;;2.30;25.00;;;;;;4980543;28;20210;-65
2021/01/09 11:33:48;;;;;;;14.02;9.00;;;2.30;24.40;;;;;;4981887;28;20297;-65
2021/01/09 11:36:14;;;;;;;9.93;7.60;;;2.20;26.80;;;;;;4982304;28;20632;-65
2021/01/09 11:38:40;;;;;;;14.18;8.70;;;2.30;26.80;;;;;;4989512;28;20190;-64
2021/01/09 11:41:09;;;;;;;12.40;8.53;;;2.30;28.40;;;;;;4987254;28;20250;-65
2021/01/09 11:43:36;;;;;;;11.85;7.95;;;2.30;30.90;;;;;;4991547;28;20206;-65
2021/01/09 11:46:05;;;;;;;11.35;7.40;;;2.30;33.80;;;;;;4991176;28;20205;-64
2021/01/09 11:48:31;;;;;;;11.65;7.97;;;2.30;37.30;;;;;;4990046;28;20194;-65
2021/01/09 11:50:56;;;;;;;11.57;7.50;;;2.30;38.70;;;;;;4991936;28;20221;-64
2021/01/09 11:53:22;;;;;;;11.10;6.80;;;2.20;44.20;;;;;;4991794;28;20551;-65
2021/01/09 11:55:49;;;;;;;8.10;6.70;;;2.30;43.20;;;;;;4987377;28;20666;-64
2021/01/09 11:58:16;;;;;;;9.35;6.85;;;2.30;38.50;;;;;;4990980;28;20183;-64
2021/01/09 12:00:42;;;;;;;11.00;6.93;;;2.30;42.20;;;;;;4988328;28;20198;-64
2021/01/09 12:03:08;;;;;;;12.60;7.75;;;2.30;40.80;;;;;;4989097;28;20191;-64
2021/01/09 12:05:34;;;;;;;11.00;7.50;;;2.40;40.50;;;;;;4990833;28;20193;-64
2021/01/09 12:08:00;;;;;;;12.97;7.43;;;2.40;40.60;;;;;;4990755;28;20206;-64
2021/01/09 12:10:27;;;;;;;9.95;7.00;;;2.40;39.00;;;;;;4988827;28;20199;-63
2021/01/09 12:12:53;;;;;;;10.13;6.60;;;2.50;37.10;;;;;;4992260;28;20167;-64
2021/01/09 12:15:19;;;;;;;8.87;6.20;;;2.50;31.20;;;;;;4990728;28;20638;-64
2021/01/09 12:17:44;;;;;;;9.90;6.50;;;2.50;37.30;;;;;;4988971;28;20617;-64
2021/01/09 12:20:10;;;;;;;9.50;6.37;;;2.40;33.80;;;;;;4988084;28;20193;-64
2021/01/09 12:22:36;;;;;;;9.65;6.80;;;2.40;38.70;;;;;;4990710;28;20190;-64
2021/01/09 12:25:03;;;;;;;9.67;6.50;;;2.40;37.40;;;;;;4989909;28;20199;-64
2021/01/09 12:27:28;;;;;;;10.23;7.07;;;2.40;39.80;;;;;;4990978;28;20193;-64
2021/01/09 12:29:54;;;;;;;10.47;6.83;;;2.40;38.40;;;;;;4991921;28;20920;-64
2021/01/09 12:32:19;;;;;;;9.70;6.70;;;2.40;35.70;;;;;;5005172;28;20224;-64
2021/01/09 12:34:46;;;;;;;10.43;7.07;;;2.40;41.30;;;;;;4985786;28;20198;-65
2021/01/09 12:37:12;;;;;;;10.50;6.30;;;2.40;45.30;;;;;;4990927;28;20594;-63
2021/01/09 12:39:38;;;;;;;8.40;6.47;;;2.30;48.50;;;;;;4982896;28;20223;-64
2021/01/09 12:42:08;;;;;;;11.17;6.80;;;2.40;52.00;;;;;;4988028;28;20186;-64
2021/01/09 12:44:33;;;;;;;9.48;6.53;;;2.40;49.90;;;;;;4988957;28;20203;-63